Time;durP1;ratioP1;P1;durP2;ratioP2;P2;SDS_P1;SDS_P2;PMS_P1;PMS_P2;Temp;Humidity;BMP_temperature;BMP_pressure;BME280_temperature;BME280_humidity;BME280_pressure;Samples;Min_cycle;Max_cycle;Signal;HPM_P1;HPM_P2
2023/05/05 00:02:20;;;;;;;10.38;5.13;;;10.00;8.60;;;;;;5095337;28;20081;-27
2023/05/05 00:04:46;;;;;;;10.63;4.63;;;9.90;6.40;;;;;;5094306;28;20040;-28
2023/05/05 00:07:12;;;;;;;10.30;4.60;;;9.90;97.50;;;;;;5094992;28;20038;-27
2023/05/05 00:09:37;;;;;;;9.13;4.68;;;9.90;99.00;;;;;;5093924;28;20048;-28
2023/05/05 00:12:03;;;;;;;10.85;5.03;;;9.80;34.40;;;;;;5093881;28;20044;-27
2023/05/05 00:14:29;;;;;;;9.68;5.00;;;9.90;32.10;;;;;;5095055;28;20101;-28
2023/05/05 00:16:55;;;;;;;8.10;4.68;;;9.90;40.60;;;;;;5076947;28;20135;-28
2023/05/05 00:19:20;;;;;;;12.40;5.07;;;9.90;24.50;;;;;;5095829;28;20046;-27
2023/05/05 00:21:46;;;;;;;11.02;4.30;;;9.90;2.10;;;;;;5095736;28;20458;-28
2023/05/05 00:24:12;;;;;;;11.85;4.55;;;10.00;21.30;;;;;;5093730;28;20048;-27
2023/05/05 00:26:38;;;;;;;10.50;4.32;;;10.00;16.50;;;;;;5095103;28;20043;-27
2023/05/05 00:29:03;;;;;;;7.88;4.35;;;10.00;1.00;;;;;;5094803;28;20083;-28
2023/05/05 00:31:29;;;;;;;8.70;4.20;;;10.00;1.00;;;;;;5093653;28;20086;-27
2023/05/05 00:33:55;;;;;;;7.47;3.72;;;10.00;1.00;;;;;;5094416;28;20098;-27
2023/05/05 00:36:20;;;;;;;11.20;5.20;;;10.10;1.00;;;;;;5094611;28;20048;-28
2023/05/05 00:38:46;;;;;;;7.63;4.00;;;10.20;1.00;;;;;;5094566;28;20432;-28
2023/05/05 00:41:12;;;;;;;8.70;4.00;;;10.20;1.00;;;;;;5094607;28;20525;-28
2023/05/05 00:43:38;;;;;;;12.35;4.70;;;10.20;1.00;;;;;;5094524;28;20051;-27
2023/05/05 00:46:14;;;;;;;7.53;3.83;;;10.30;1.00;;;;;;5094471;28;20093;-27
2023/05/05 00:48:40;;;;;;;8.93;4.03;;;10.30;1.00;;;;;;5094689;28;20050;-28
2023/05/05 00:51:08;;;;;;;14.25;5.47;;;10.30;1.00;;;;;;5095001;28;20047;-27
2023/05/05 00:53:34;;;;;;;12.95;4.15;;;10.30;1.00;;;;;;5094328;28;20087;-28
2023/05/05 00:56:00;;;;;;;9.73;4.07;;;10.30;1.00;;;;;;5093153;28;20051;-28
2023/05/05 00:58:27;;;;;;;8.50;3.92;;;10.20;1.00;;;;;;5094170;28;20040;-28
2023/05/05 01:00:53;;;;;;;13.68;4.68;;;10.20;1.00;;;;;;5094234;28;20044;-27
2023/05/05 01:03:19;;;;;;;8.15;4.15;;;10.20;1.00;;;;;;5094466;28;20040;-27
2023/05/05 01:06:04;;;;;;;12.02;5.22;;;10.10;1.00;;;;;;5094207;28;20047;-27
2023/05/05 01:08:40;;;;;;;7.90;4.30;;;10.10;1.00;;;;;;5094176;28;20040;-27
2023/05/05 01:11:28;;;;;;;9.35;4.60;;;10.00;1.00;;;;;;5094686;28;20040;-27
2023/05/05 01:14:12;;;;;;;9.82;4.53;;;10.00;3.90;;;;;;5094263;28;20058;-27
2023/05/05 01:16:43;;;;;;;12.90;4.13;;;9.90;1.00;;;;;;5093971;28;20052;-27
2023/05/05 01:19:33;;;;;;;12.32;5.25;;;9.90;1.00;;;;;;5094097;28;20505;-27
2023/05/05 01:22:01;;;;;;;10.98;4.78;;;9.90;1.00;;;;;;5094087;28;20105;-27
2023/05/05 01:24:51;;;;;;;12.50;4.70;;;9.80;1.00;;;;;;5094479;28;20422;-27
2023/05/05 01:27:42;;;;;;;8.27;4.57;;;9.80;1.00;;;;;;5093947;28;20063;-27
2023/05/05 01:30:23;;;;;;;14.35;4.80;;;9.80;1.00;;;;;;5092694;28;20393;-27
2023/05/05 01:32:55;;;;;;;11.10;4.53;;;9.70;1.00;;;;;;5093894;28;20044;-27
2023/05/05 01:35:31;;;;;;;11.75;5.18;;;9.70;1.00;;;;;;5093917;28;20044;-27
2023/05/05 01:38:31;;;;;;;8.90;4.35;;;9.60;1.00;;;;;;5093782;28;20048;-27
2023/05/05 01:41:04;;;;;;;9.13;4.53;;;9.60;5.40;;;;;;5086309;28;20060;-27
2023/05/05 01:43:33;;;;;;;10.55;4.65;;;9.50;1.00;;;;;;5093823;28;20044;-28
2023/05/05 01:46:00;;;;;;;10.65;4.53;;;9.50;1.00;;;;;;5076473;28;20194;-27
2023/05/05 01:48:28;;;;;;;15.38;5.07;;;9.50;17.20;;;;;;5097021;28;20048;-27
2023/05/05 01:50:54;;;;;;;11.63;4.85;;;9.40;14.00;;;;;;5098682;28;20071;-28
2023/05/05 01:53:23;;;;;;;8.05;4.40;;;9.50;23.70;;;;;;5098662;28;20474;-27
2023/05/05 01:55:50;;;;;;;13.27;4.63;;;9.50;52.60;;;;;;5096587;28;20044;-28
2023/05/05 01:58:17;;;;;;;8.73;4.30;;;9.40;99.90;;;;;;5097662;28;20545;-27
2023/05/05 02:00:43;;;;;;;9.20;4.88;;;9.50;73.00;;;;;;5098255;28;20058;-27
2023/05/05 02:03:12;;;;;;;8.25;4.78;;;9.60;84.30;;;;;;5097648;28;20047;-27
2023/05/05 02:05:39;;;;;;;9.13;5.25;;;9.60;67.50;;;;;;5098162;28;20044;-27
2023/05/05 02:08:05;;;;;;;6.93;4.22;;;9.60;86.60;;;;;;5097551;28;20091;-27
2023/05/05 02:10:31;;;;;;;19.35;4.80;;;9.60;72.90;;;;;;5097529;28;20398;-27
2023/05/05 02:13:01;;;;;;;9.77;4.53;;;9.60;65.00;;;;;;5097537;28;20043;-27
2023/05/05 02:15:28;;;;;;;12.38;5.22;;;9.60;92.70;;;;;;5097441;28;20557;-27
2023/05/05 02:17:54;;;;;;;15.27;4.80;;;9.70;78.50;;;;;;5097279;28;20040;-27
2023/05/05 02:20:22;;;;;;;9.32;4.90;;;9.70;82.40;;;;;;5097669;28;20478;-27
2023/05/05 02:22:48;;;;;;;9.52;4.45;;;9.70;84.00;;;;;;5097894;28;20126;-27
2023/05/05 02:25:16;;;;;;;10.50;4.35;;;9.70;86.40;;;;;;5098044;28;20127;-27
2023/05/05 02:27:43;;;;;;;8.63;4.43;;;9.70;74.10;;;;;;5095932;28;20139;-28
2023/05/05 02:30:14;;;;;;;9.82;4.65;;;9.80;99.90;;;;;;5097160;28;20071;-28
2023/05/05 02:32:48;;;;;;;9.80;4.82;;;9.80;77.50;;;;;;5096467;28;20135;-27
2023/05/05 02:35:18;;;;;;;8.52;4.50;;;9.80;63.40;;;;;;5097071;28;20087;-27
2023/05/05 02:37:48;;;;;;;12.90;4.72;;;9.80;95.00;;;;;;5095905;28;20481;-28
2023/05/05 02:40:21;;;;;;;11.88;4.97;;;9.80;13.60;;;;;;5095789;28;20056;-29
2023/05/05 02:42:48;;;;;;;11.60;4.97;;;9.90;11.30;;;;;;5096959;28;20078;-27
2023/05/05 02:45:17;;;;;;;9.98;5.00;;;9.90;1.00;;;;;;5078683;28;20383;-27
2023/05/05 02:47:42;;;;;;;9.10;4.85;;;9.80;1.00;;;;;;5097328;28;20097;-27
2023/05/05 02:50:08;;;;;;;8.52;4.95;;;9.80;1.00;;;;;;5096686;28;20051;-27
2023/05/05 02:52:35;;;;;;;11.27;5.60;;;9.80;1.00;;;;;;5095725;28;20486;-27
2023/05/05 02:55:02;;;;;;;10.80;4.45;;;9.80;1.00;;;;;;5096724;28;20056;-27
2023/05/05 02:57:52;;;;;;;13.88;4.75;;;9.80;1.00;;;;;;5096537;28;20040;-28
2023/05/05 03:00:31;;;;;;;10.68;4.60;;;9.80;1.00;;;;;;5095718;28;20040;-27
2023/05/05 03:03:12;;;;;;;9.07;4.25;;;9.70;1.00;;;;;;5097125;28;20055;-28
2023/05/05 03:05:46;;;;;;;10.68;4.68;;;9.80;1.00;;;;;;5096583;28;20051;-27
2023/05/05 03:08:30;;;;;;;9.35;4.88;;;9.70;1.00;;;;;;5096503;28;20125;-27
2023/05/05 03:11:05;;;;;;;11.15;4.50;;;9.60;1.00;;;;;;5096662;28;20048;-27
2023/05/05 03:13:34;;;;;;;11.23;5.07;;;9.60;1.00;;;;;;5096630;28;20052;-28
2023/05/05 03:16:05;;;;;;;9.57;5.10;;;9.50;1.00;;;;;;5095077;28;20052;-28
2023/05/05 03:18:33;;;;;;;9.00;4.82;;;9.50;1.00;;;;;;5096449;28;20040;-28
2023/05/05 03:21:06;;;;;;;8.20;4.95;;;9.30;1.00;;;;;;5096081;28;20543;-28
2023/05/05 03:23:33;;;;;;;7.82;4.60;;;9.30;28.70;;;;;;5096734;28;20058;-27
2023/05/05 03:25:59;;;;;;;11.88;4.97;;;9.20;8.30;;;;;;5096096;28;20137;-27
2023/05/05 03:28:25;;;;;;;12.07;4.88;;;9.20;36.40;;;;;;5094863;28;20083;-28
2023/05/05 03:30:52;;;;;;;10.52;4.80;;;9.20;61.20;;;;;;5095993;28;20134;-28
2023/05/05 03:33:18;;;;;;;12.95;4.90;;;9.20;86.70;;;;;;5095957;28;20079;-27
2023/05/05 03:35:43;;;;;;;12.68;5.30;;;9.20;97.70;;;;;;5096708;28;20040;-28
2023/05/05 03:38:09;;;;;;;11.73;4.80;;;9.20;99.90;;;;;;5061270;28;20052;-27
2023/05/05 03:40:35;;;;;;;10.45;4.80;;;9.30;99.90;;;;;;5094599;28;20090;-27
2023/05/05 03:43:01;;;;;;;8.10;5.22;;;9.40;99.90;;;;;;5096018;28;20070;-27
2023/05/05 03:45:26;;;;;;;10.73;5.07;;;9.50;99.90;;;;;;5095704;28;20051;-27
2023/05/05 03:47:52;;;;;;;10.32;5.13;;;9.50;99.90;;;;;;5095660;28;20043;-28
2023/05/05 03:50:18;;;;;;;10.75;5.03;;;9.50;99.90;;;;;;5061045;28;20054;-28
2023/05/05 03:52:43;;;;;;;13.45;4.75;;;9.50;99.90;;;;;;5095564;28;20059;-27
2023/05/05 03:55:09;;;;;;;15.43;4.50;;;9.60;99.90;;;;;;5095493;28;20036;-27
2023/05/05 03:57:35;;;;;;;10.50;4.90;;;9.50;99.90;;;;;;5095353;28;20079;-27
2023/05/05 04:00:00;;;;;;;8.65;4.57;;;9.60;99.90;;;;;;5095426;28;20048;-27
2023/05/05 04:02:26;;;;;;;8.60;4.60;;;9.60;99.90;;;;;;5094129;28;20040;-27
2023/05/05 04:04:52;;;;;;;9.68;4.47;;;9.60;99.90;;;;;;5095777;28;20131;-27
2023/05/05 04:07:18;;;;;;;8.05;5.32;;;9.60;99.90;;;;;;5095054;28;20174;-28
2023/05/05 04:09:43;;;;;;;6.53;4.20;;;9.70;99.90;;;;;;5094907;28;20048;-27
2023/05/05 04:12:12;;;;;;;9.68;4.45;;;9.70;99.90;;;;;;5095386;28;20048;-27
2023/05/05 04:14:38;;;;;;;18.92;5.50;;;9.70;99.90;;;;;;5095676;28;20044;-27
2023/05/05 04:17:05;;;;;;;10.80;4.80;;;9.70;99.90;;;;;;5093793;28;20054;-28
2023/05/05 04:19:31;;;;;;;11.13;5.28;;;9.80;99.90;;;;;;5093760;28;20101;-27
2023/05/05 04:21:58;;;;;;;9.02;4.75;;;9.80;99.90;;;;;;5095761;28;20138;-26
2023/05/05 04:24:24;;;;;;;10.75;5.35;;;9.80;99.90;;;;;;5094922;28;20051;-26
2023/05/05 04:26:53;;;;;;;9.60;5.32;;;9.80;99.90;;;;;;5095446;28;20109;-26
2023/05/05 04:29:19;;;;;;;8.85;5.50;;;9.80;99.90;;;;;;5094868;28;20071;-25
2023/05/05 04:31:44;;;;;;;12.90;6.03;;;9.60;99.90;;;;;;5095099;28;20426;-25
2023/05/05 04:34:10;;;;;;;10.75;5.88;;;9.50;99.90;;;;;;5094774;28;20478;-24
2023/05/05 04:36:36;;;;;;;12.35;5.60;;;9.40;1.00;;;;;;5094731;28;20091;-24
2023/05/05 04:39:02;;;;;;;11.80;6.55;;;9.30;1.00;;;;;;5094239;28;20056;-24
2023/05/05 04:41:27;;;;;;;14.52;6.65;;;9.30;1.00;;;;;;5094554;28;20055;-24
2023/05/05 04:43:56;;;;;;;9.25;5.72;;;9.20;17.00;;;;;;5093293;28;20181;-24
2023/05/05 04:46:23;;;;;;;16.98;7.07;;;9.20;1.00;;;;;;5094470;28;20055;-24
2023/05/05 04:48:49;;;;;;;11.73;7.20;;;9.20;1.00;;;;;;5094344;28;20073;-24
2023/05/05 04:51:15;;;;;;;13.95;7.28;;;9.20;59.60;;;;;;5095439;28;20052;-24
2023/05/05 04:53:41;;;;;;;11.25;6.60;;;9.20;95.70;;;;;;5094604;28;20395;-24
2023/05/05 04:56:06;;;;;;;17.40;6.35;;;9.10;85.20;;;;;;5094331;28;20551;-24
2023/05/05 04:58:32;;;;;;;14.88;6.60;;;9.10;99.90;;;;;;5093882;28;20040;-24
2023/05/05 05:00:58;;;;;;;11.27;7.05;;;9.10;99.90;;;;;;5094035;28;20044;-24
2023/05/05 05:03:23;;;;;;;15.60;6.70;;;9.10;99.90;;;;;;5076981;28;20048;-24
2023/05/05 05:05:49;;;;;;;15.27;7.47;;;9.10;99.90;;;;;;5094182;28;20390;-23
2023/05/05 05:08:16;;;;;;;12.25;6.72;;;8.90;99.90;;;;;;5093440;28;20055;-23
2023/05/05 05:10:42;;;;;;;13.82;7.25;;;8.80;99.90;;;;;;5094101;28;20071;-22
2023/05/05 05:13:08;;;;;;;11.90;7.07;;;8.90;99.90;;;;;;5094088;28;20048;-22
2023/05/05 05:15:36;;;;;;;11.05;6.65;;;8.90;99.90;;;;;;5093979;28;20389;-23
2023/05/05 05:18:02;;;;;;;15.63;7.53;;;8.90;99.90;;;;;;5094383;28;20044;-23
2023/05/05 05:20:29;;;;;;;11.85;7.43;;;8.90;99.90;;;;;;5092956;28;20077;-22
2023/05/05 05:22:56;;;;;;;15.65;8.25;;;8.90;99.90;;;;;;5091929;28;20056;-23
2023/05/05 05:25:22;;;;;;;14.27;8.27;;;8.90;99.90;;;;;;5093849;28;20512;-22
2023/05/05 05:27:48;;;;;;;11.15;7.78;;;8.90;99.90;;;;;;5094336;28;20048;-22
2023/05/05 05:30:14;;;;;;;13.98;7.70;;;8.90;99.90;;;;;;5093854;28;20040;-22
2023/05/05 05:32:40;;;;;;;14.80;7.60;;;8.90;99.90;;;;;;5092623;28;20127;-22
2023/05/05 05:35:06;;;;;;;16.83;7.50;;;9.00;99.90;;;;;;5093737;28;20079;-22
2023/05/05 05:37:34;;;;;;;14.88;8.32;;;9.10;99.90;;;;;;5093676;28;20048;-22
2023/05/05 05:40:00;;;;;;;12.07;7.68;;;9.20;99.90;;;;;;5093764;28;20044;-23
2023/05/05 05:42:25;;;;;;;13.20;7.32;;;9.30;99.90;;;;;;5093635;28;20036;-22
2023/05/05 05:44:51;;;;;;;18.70;7.32;;;9.50;99.90;;;;;;5093682;28;20044;-23
2023/05/05 05:47:17;;;;;;;11.50;6.93;;;9.70;99.90;;;;;;5093625;28;20039;-22
2023/05/05 05:49:42;;;;;;;13.70;6.30;;;10.00;99.90;;;;;;5093782;28;20083;-23
2023/05/05 05:52:08;;;;;;;9.32;6.07;;;10.20;99.90;;;;;;5093567;28;20521;-23
2023/05/05 05:54:34;;;;;;;11.90;6.78;;;10.40;99.90;;;;;;5093597;28;20044;-23
2023/05/05 05:57:01;;;;;;;10.85;6.72;;;10.40;99.90;;;;;;5093458;28;20047;-23
2023/05/05 05:59:27;;;;;;;12.20;7.35;;;10.50;99.90;;;;;;5094090;28;20040;-23
2023/05/05 06:01:54;;;;;;;12.27;6.93;;;10.60;99.90;;;;;;5093991;28;20048;-23
2023/05/05 06:04:20;;;;;;;9.50;6.30;;;10.80;99.90;;;;;;5058391;28;20044;-23
2023/05/05 06:06:45;;;;;;;10.45;6.10;;;11.00;99.90;;;;;;5093297;28;20109;-23
2023/05/05 06:09:11;;;;;;;9.73;5.88;;;11.10;99.90;;;;;;5093532;28;20394;-23
2023/05/05 06:11:37;;;;;;;11.20;6.30;;;11.30;99.90;;;;;;5092258;28;20086;-24
2023/05/05 06:14:03;;;;;;;12.45;6.45;;;11.50;99.90;;;;;;5092416;28;20075;-23
2023/05/05 06:16:29;;;;;;;14.48;6.57;;;11.50;99.90;;;;;;5093390;28;20084;-24
2023/05/05 06:18:54;;;;;;;10.10;5.72;;;11.60;99.90;;;;;;5093238;28;20040;-24
2023/05/05 06:21:20;;;;;;;8.40;5.50;;;11.70;99.90;;;;;;5093271;28;20056;-24
2023/05/05 06:23:46;;;;;;;9.90;5.55;;;11.90;99.90;;;;;;5093683;28;20059;-24
2023/05/05 06:26:12;;;;;;;12.23;6.20;;;12.10;99.90;;;;;;5092970;28;20502;-24
2023/05/05 06:28:38;;;;;;;8.50;5.47;;;12.10;18.20;;;;;;5093203;28;20040;-24
2023/05/05 06:31:03;;;;;;;12.30;5.38;;;12.20;31.70;;;;;;5092120;28;20048;-24
2023/05/05 06:33:29;;;;;;;10.23;5.30;;;12.10;1.00;;;;;;5094736;28;20403;-24
2023/05/05 06:35:55;;;;;;;11.00;5.93;;;11.90;1.00;;;;;;5097004;28;20048;-24
2023/05/05 06:38:21;;;;;;;8.85;6.07;;;11.80;1.00;;;;;;5096829;28;20036;-25
2023/05/05 06:40:48;;;;;;;8.30;5.57;;;11.70;1.00;;;;;;5096847;28;20051;-24
2023/05/05 06:43:14;;;;;;;11.10;5.45;;;11.70;1.00;;;;;;5096885;28;20478;-24
2023/05/05 06:45:40;;;;;;;12.30;7.15;;;11.60;1.00;;;;;;5097402;28;20040;-24
2023/05/05 06:48:07;;;;;;;10.75;5.75;;;11.50;1.00;;;;;;5096748;28;20436;-30
2023/05/05 06:50:32;;;;;;;9.23;5.82;;;11.60;1.00;;;;;;5095706;28;20083;-25
2023/05/05 06:52:58;;;;;;;7.65;5.45;;;11.60;1.00;;;;;;5096717;28;20471;-25
2023/05/05 06:55:24;;;;;;;9.77;6.30;;;11.60;1.00;;;;;;5096666;28;20389;-25
2023/05/05 06:57:50;;;;;;;8.60;5.57;;;11.60;1.00;;;;;;5095354;28;20044;-25
2023/05/05 07:00:16;;;;;;;9.90;6.45;;;11.60;8.20;;;;;;5096606;28;20127;-25
2023/05/05 07:02:42;;;;;;;10.35;6.10;;;11.70;8.60;;;;;;5094914;28;20052;-26
2023/05/05 07:05:08;;;;;;;10.52;6.13;;;11.90;56.40;;;;;;5096798;28;20044;-25
2023/05/05 07:07:34;;;;;;;8.38;5.82;;;12.10;99.90;;;;;;5095128;28;20047;-26
2023/05/05 07:10:00;;;;;;;10.05;5.53;;;12.20;99.90;;;;;;5096376;28;20047;-25
2023/05/05 07:12:29;;;;;;;9.63;6.25;;;12.40;1.00;;;;;;5096963;28;20047;-26
2023/05/05 07:14:55;;;;;;;11.73;6.05;;;12.50;1.00;;;;;;5096302;28;20052;-26
2023/05/05 07:17:21;;;;;;;9.75;5.47;;;12.50;1.00;;;;;;5096172;28;20051;-26
2023/05/05 07:19:47;;;;;;;9.43;5.55;;;12.60;1.00;;;;;;5096093;28;20036;-26
2023/05/05 07:22:13;;;;;;;8.35;5.18;;;12.70;1.00;;;;;;5094867;28;20063;-25
2023/05/05 07:24:39;;;;;;;9.68;5.90;;;12.90;1.00;;;;;;5094946;28;20044;-27
2023/05/05 07:27:05;;;;;;;11.50;5.97;;;13.10;1.00;;;;;;5096033;28;20083;-27
2023/05/05 07:29:31;;;;;;;8.80;5.57;;;13.20;1.00;;;;;;5095839;28;20184;-26
2023/05/05 07:31:57;;;;;;;9.93;5.22;;;13.40;1.00;;;;;;5095910;28;20077;-26
2023/05/05 07:34:22;;;;;;;10.27;6.05;;;13.50;1.00;;;;;;5095226;28;20044;-26
2023/05/05 07:36:48;;;;;;;8.25;5.70;;;13.60;1.00;;;;;;5095843;28;20050;-26
2023/05/05 07:39:14;;;;;;;11.38;6.05;;;13.70;1.00;;;;;;5095672;28;20123;-26
2023/05/05 07:41:41;;;;;;;10.35;5.95;;;13.80;1.00;;;;;;5095756;28;20474;-27
2023/05/05 07:44:07;;;;;;;13.32;6.13;;;13.90;99.90;;;;;;5095495;28;20402;-27
2023/05/05 07:46:33;;;;;;;9.50;6.22;;;14.00;99.90;;;;;;5095243;28;20040;-27
2023/05/05 07:48:58;;;;;;;9.77;6.40;;;14.10;99.90;;;;;;5095516;28;20051;-27
2023/05/05 07:51:25;;;;;;;10.45;5.93;;;14.20;99.90;;;;;;5095541;28;20048;-27
2023/05/05 07:53:51;;;;;;;9.45;6.10;;;14.30;99.90;;;;;;5095544;28;20051;-27
2023/05/05 07:56:16;;;;;;;9.45;6.30;;;14.60;99.90;;;;;;5095674;28;20048;-27
2023/05/05 07:58:42;;;;;;;12.65;6.47;;;15.10;99.90;;;;;;5095632;28;20039;-28
2023/05/05 08:01:09;;;;;;;12.07;5.60;;;15.40;99.90;;;;;;5094091;28;20436;-28
2023/05/05 08:03:35;;;;;;;7.60;5.57;;;15.50;1.00;;;;;;5095349;28;20105;-27
2023/05/05 08:06:08;;;;;;;12.38;6.13;;;15.80;1.00;;;;;;5094119;28;20130;-27
2023/05/05 08:08:34;;;;;;;;;;;16.10;1.00;;;;;;5095998;28;20039;-28
2023/05/05 08:11:00;;;;;;;11.57;6.32;;;16.20;1.00;;;;;;5077069;28;20266;-28
2023/05/05 08:13:27;;;;;;;10.10;5.75;;;16.20;99.90;;;;;;5095138;28;20052;-28
2023/05/05 08:15:53;;;;;;;9.10;6.00;;;16.30;99.90;;;;;;5095537;28;20048;-27
2023/05/05 08:18:18;;;;;;;10.98;6.90;;;16.40;99.90;;;;;;5093801;28;20044;-28
2023/05/05 08:20:44;;;;;;;9.32;6.63;;;16.60;99.90;;;;;;5095525;28;20351;-27
2023/05/05 08:23:10;;;;;;;9.68;7.47;;;17.00;99.90;;;;;;5094379;28;20135;-28
2023/05/05 08:25:35;;;;;;;8.23;6.97;;;17.30;99.90;;;;;;5094767;28;20044;-28
2023/05/05 08:28:01;;;;;;;10.15;6.60;;;17.40;1.00;;;;;;5094848;28;20044;-28
2023/05/05 08:30:27;;;;;;;9.93;6.78;;;17.30;99.90;;;;;;5093597;28;20414;-29
2023/05/05 08:32:53;;;;;;;8.05;7.03;;;17.20;99.90;;;;;;5094779;28;20050;-28
2023/05/05 08:35:20;;;;;;;10.82;6.75;;;17.10;99.90;;;;;;5094750;28;20130;-28
2023/05/05 08:37:45;;;;;;;9.38;6.80;;;17.20;1.00;;;;;;5094588;28;20040;-28
2023/05/05 08:40:15;;;;;;;13.30;8.52;;;17.40;1.00;;;;;;5094872;28;20054;-28
2023/05/05 08:42:43;;;;;;;18.13;10.45;;;17.50;1.00;;;;;;5094561;28;20048;-28
2023/05/05 08:45:09;;;;;;;9.73;7.97;;;17.20;99.90;;;;;;5094490;28;20051;-29
2023/05/05 08:47:36;;;;;;;13.05;7.72;;;17.40;1.00;;;;;;5094593;28;20160;-28
2023/05/05 08:50:04;;;;;;;14.00;8.02;;;17.50;1.00;;;;;;5093153;28;20109;-28
2023/05/05 08:52:47;;;;;;;12.63;8.07;;;17.50;1.00;;;;;;5094421;28;20055;-29
2023/05/05 08:55:32;;;;;;;11.40;7.47;;;17.30;1.00;;;;;;5094692;28;20385;-28
2023/05/05 08:58:01;;;;;;;10.88;7.90;;;18.00;1.00;;;;;;5094856;28;20047;-28
2023/05/05 09:00:27;;;;;;;10.27;6.93;;;18.70;99.90;;;;;;5094232;28;20048;-27
2023/05/05 09:02:58;;;;;;;17.40;8.32;;;20.40;1.00;;;;;;5094165;28;20176;-28
2023/05/05 09:05:25;;;;;;;13.00;7.93;;;20.60;99.90;;;;;;5094472;28;20052;-27
2023/05/05 09:07:51;;;;;;;12.18;8.23;;;21.30;1.00;;;;;;5094159;28;20048;-28
2023/05/05 09:10:17;;;;;;;9.70;7.35;;;22.30;99.90;;;;;;5092943;28;20039;-28
2023/05/05 09:12:43;;;;;;;11.57;7.57;;;23.10;9.70;;;;;;5094073;28;20048;-28
2023/05/05 09:15:13;;;;;;;13.38;7.68;;;;;;;;;;5094043;28;20501;-28
2023/05/05 09:17:40;;;;;;;11.10;8.50;;;24.20;99.90;;;;;;5093766;28;20551;-28
2023/05/05 09:20:08;;;;;;;13.23;7.45;;;24.40;99.90;;;;;;5093877;28;20093;-28
2023/05/05 09:22:37;;;;;;;12.20;8.35;;;24.00;99.90;;;;;;5093460;28;20063;-26
2023/05/05 09:25:08;;;;;;;10.63;8.35;;;22.70;99.90;;;;;;5074690;28;20048;-28
2023/05/05 09:27:35;;;;;;;10.02;8.20;;;22.10;99.90;;;;;;5077868;28;20201;-28
2023/05/05 09:30:02;;;;;;;11.90;8.48;;;21.80;99.90;;;;;;5085974;28;20044;-28
2023/05/05 09:32:28;;;;;;;11.68;7.93;;;22.40;99.90;;;;;;5086980;28;20089;-28
2023/05/05 09:35:00;;;;;;;10.20;8.02;;;22.60;99.90;;;;;;5093454;28;20133;-30
2023/05/05 09:37:30;;;;;;;11.07;8.40;;;23.20;99.90;;;;;;5072893;28;20366;-28
2023/05/05 09:39:59;;;;;;;13.95;8.48;;;22.30;99.90;;;;;;5073793;28;20486;-28
2023/05/05 09:42:26;;;;;;;11.07;9.25;;;21.40;99.90;;;;;;5072422;28;20119;-29
2023/05/05 09:44:53;;;;;;;11.95;8.82;;;21.10;1.00;;;;;;5083093;28;20194;-29
2023/05/05 09:47:19;;;;;;;11.13;8.55;;;21.00;70.40;;;;;;5083535;28;20051;-28
2023/05/05 09:49:56;;;;;;;12.55;9.55;;;21.00;99.90;;;;;;5073383;28;20048;-28
2023/05/05 09:52:22;;;;;;;10.88;8.85;;;21.00;39.00;;;;;;5073361;28;20048;-28
2023/05/05 09:54:54;;;;;;;10.98;9.38;;;21.10;99.90;;;;;;5072913;28;20041;-28
2023/05/05 09:57:28;;;;;;;13.20;9.48;;;21.50;99.90;;;;;;5072289;28;20049;-28
2023/05/05 09:59:59;;;;;;;9.45;8.27;;;21.30;44.50;;;;;;5076018;28;20055;-29
2023/05/05 10:02:34;;;;;;;9.85;8.75;;;21.90;99.90;;;;;;5077982;28;20123;-28
2023/05/05 10:05:12;;;;;;;10.82;8.75;;;22.00;89.80;;;;;;5071537;28;20185;-29
2023/05/05 10:07:40;;;;;;;16.27;9.98;;;22.00;1.00;;;;;;5072403;28;20474;-29
2023/05/05 10:10:16;;;;;;;16.08;10.50;;;22.40;53.70;;;;;;5077543;28;20095;-24
2023/05/05 10:12:44;;;;;;;16.17;11.57;;;21.40;1.00;;;;;;5075692;28;20076;-28
2023/05/05 10:15:10;;;;;;;14.95;11.40;;;21.40;99.90;;;;;;5076794;28;20040;-28
2023/05/05 10:17:56;;;;;;;13.13;10.95;;;21.30;99.90;;;;;;5075928;28;20462;-29
2023/05/05 10:20:23;;;;;;;14.20;11.57;;;21.30;99.90;;;;;;5075586;28;20084;-28
2023/05/05 10:22:53;;;;;;;14.75;13.07;;;21.40;99.90;;;;;;5075186;28;20426;-28
2023/05/05 10:25:29;;;;;;;17.00;14.45;;;21.60;1.00;;;;;;5083267;28;20044;-29
2023/05/05 10:27:59;;;;;;;19.63;14.73;;;22.40;99.90;;;;;;5075619;28;20516;-28
2023/05/05 10:30:29;;;;;;;16.67;14.20;;;22.50;99.90;;;;;;5075794;28;20494;-29
2023/05/05 10:33:16;;;;;;;20.00;15.43;;;22.70;99.90;;;;;;5076470;28;20052;-28
2023/05/05 10:35:44;;;;;;;19.92;14.85;;;22.20;1.00;;;;;;5087412;28;20119;-28
2023/05/05 10:38:11;;;;;;;19.27;15.63;;;22.00;99.90;;;;;;5076660;28;20101;-29
2023/05/05 10:40:42;;;;;;;21.90;16.60;;;21.60;99.90;;;;;;5087733;28;20052;-29
2023/05/05 10:43:09;;;;;;;21.58;16.67;;;20.90;1.00;;;;;;5097672;28;20040;-28
2023/05/05 10:45:36;;;;;;;21.67;16.75;;;20.00;1.00;;;;;;5062394;28;20079;-29
2023/05/05 10:48:05;;;;;;;24.10;16.17;;;20.10;99.90;;;;;;5096157;28;20080;-28
2023/05/05 10:50:38;;;;;;;23.88;17.98;;;;;;;;;;5082031;28;20044;-28
2023/05/05 10:53:24;;;;;;;23.10;18.00;;;19.10;97.50;;;;;;5096814;28;20143;-28
2023/05/05 10:56:04;;;;;;;22.42;18.45;;;19.00;99.90;;;;;;5096499;28;20510;-27
2023/05/05 10:58:38;;;;;;;22.70;16.38;;;19.70;13.40;;;;;;5088263;28;20037;-28
2023/05/05 11:01:05;;;;;;;19.33;14.43;;;20.60;99.90;;;;;;5074115;28;20044;-28
2023/05/05 11:03:31;;;;;;;16.42;14.25;;;20.70;99.90;;;;;;5081757;28;20075;-28
2023/05/05 11:06:03;;;;;;;16.08;10.93;;;20.70;99.90;;;;;;5084286;28;20049;-28
2023/05/05 11:08:30;;;;;;;16.00;10.43;;;20.30;99.90;;;;;;5075585;28;20076;-28
2023/05/05 11:10:56;;;;;;;18.70;13.88;;;19.80;99.90;;;;;;5075208;28;20055;-27
2023/05/05 11:13:21;;;;;;;18.95;14.10;;;19.60;1.00;;;;;;5057995;28;20048;-28
2023/05/05 11:15:51;;;;;;;21.02;14.60;;;20.20;1.00;;;;;;5075055;28;20448;-27
2023/05/05 11:18:37;;;;;;;19.13;13.88;;;21.30;99.90;;;;;;5086467;28;20044;-28
2023/05/05 11:21:13;;;;;;;16.52;13.07;;;22.20;99.90;;;;;;5078476;28;20553;-27
2023/05/05 11:24:00;;;;;;;15.80;13.43;;;22.50;99.90;;;;;;5076581;28;20055;-28
2023/05/05 11:26:49;;;;;;;14.93;12.65;;;22.80;99.90;;;;;;5074394;28;20060;-26
2023/05/05 11:29:14;;;;;;;13.38;10.68;;;22.70;1.00;;;;;;5076599;28;20059;-25
2023/05/05 11:31:40;;;;;;;14.40;11.60;;;22.20;99.90;;;;;;5075623;28;20490;-28
2023/05/05 11:34:26;;;;;;;14.15;12.35;;;22.00;99.90;;;;;;5056488;28;20478;-28
2023/05/05 11:36:55;;;;;;;15.80;12.75;;;21.90;99.90;;;;;;5079399;28;20506;-29
2023/05/05 11:40:01;;;;;;;11.43;9.23;;;21.60;99.90;;;;;;5075118;28;20090;-28
2023/05/05 11:42:28;;;;;;;11.48;10.27;;;20.70;99.90;;;;;;5068949;28;20067;-28
2023/05/05 11:44:55;;;;;;;16.88;12.35;;;20.30;7.20;;;;;;5088357;28;20044;-27
2023/05/05 11:47:20;;;;;;;15.50;11.60;;;20.30;99.90;;;;;;5096112;28;20390;-29
2023/05/05 11:49:48;;;;;;;12.15;10.85;;;20.40;99.90;;;;;;5066950;28;20046;-28
2023/05/05 11:52:14;;;;;;;13.15;11.07;;;20.40;1.00;;;;;;5074813;28;20048;-28
2023/05/05 11:54:40;;;;;;;17.13;10.82;;;20.20;99.90;;;;;;5076357;28;20124;-28
2023/05/05 11:57:07;;;;;;;14.77;10.40;;;20.40;1.00;;;;;;5078118;28;20044;-28
2023/05/05 11:59:36;;;;;;;13.27;11.43;;;20.30;1.00;;;;;;5083202;28;20053;-28
2023/05/05 12:02:02;;;;;;;13.10;10.63;;;20.20;1.00;;;;;;5074461;28;20128;-28
2023/05/05 12:04:30;;;;;;;13.57;8.35;;;20.30;1.00;;;;;;5074433;28;20083;-28
2023/05/05 12:06:56;;;;;;;11.93;7.40;;;19.90;1.00;;;;;;5074350;28;20045;-28
2023/05/05 12:09:22;;;;;;;9.18;8.25;;;19.60;1.00;;;;;;5073723;28;20048;-26
2023/05/05 12:11:48;;;;;;;12.45;9.05;;;19.50;99.90;;;;;;5074417;28;20040;-27
2023/05/05 12:14:14;;;;;;;14.15;8.40;;;19.40;99.90;;;;;;5074897;28;20043;-28
2023/05/05 12:16:40;;;;;;;12.35;9.02;;;19.20;99.90;;;;;;5059718;28;20131;-28
2023/05/05 12:19:07;;;;;;;13.48;8.30;;;19.30;99.90;;;;;;5073689;28;20036;-28
2023/05/05 12:21:33;;;;;;;11.45;7.47;;;19.30;99.90;;;;;;5073742;28;20056;-28
2023/05/05 12:23:59;;;;;;;11.65;7.25;;;19.40;99.90;;;;;;5067973;28;20379;-27
2023/05/05 12:26:27;;;;;;;12.23;7.28;;;19.40;99.90;;;;;;5079051;28;20053;-28
2023/05/05 12:28:54;;;;;;;9.32;5.68;;;19.50;99.90;;;;;;5074322;28;20124;-25
2023/05/05 12:31:20;;;;;;;8.10;5.00;;;19.40;1.00;;;;;;5074163;28;20141;-28
2023/05/05 12:33:47;;;;;;;7.80;4.70;;;19.30;1.00;;;;;;5074024;28;20087;-28
2023/05/05 12:36:14;;;;;;;9.68;6.88;;;19.30;1.00;;;;;;5055396;28;20061;-27
2023/05/05 12:38:40;;;;;;;9.88;7.05;;;19.30;99.90;;;;;;5077554;28;20123;-27
2023/05/05 12:41:06;;;;;;;8.27;6.53;;;19.30;99.90;;;;;;5057959;28;20044;-27
2023/05/05 12:43:35;;;;;;;10.02;6.85;;;19.20;1.00;;;;;;5073920;28;20055;-28
2023/05/05 12:46:10;;;;;;;11.35;6.82;;;19.00;1.00;;;;;;5074346;28;20044;-28
2023/05/05 12:48:37;;;;;;;6.72;4.68;;;18.80;99.90;;;;;;5073472;28;20490;-27
2023/05/05 12:51:22;;;;;;;9.73;4.95;;;18.50;99.90;;;;;;5075067;28;20127;-27
2023/05/05 12:54:01;;;;;;;7.47;3.90;;;18.20;99.90;;;;;;5073413;28;20056;-27
2023/05/05 12:56:40;;;;;;;9.40;5.65;;;17.90;99.90;;;;;;5073757;28;20401;-27